EKSB/SGD METAR and TAF weather

Enter ICAO airport designator
Station Type Date Time Source
EKSB METAR 2020/09/18 23:50 UTC NOAA

EKSB 182350Z AUTO 00000KT 9999NDV ///////// 08/05 Q1027


Station Type Date Time Source
EKSB Decoded METAR 2020/09/18 23:50 UTC NOAA

Soenderborg Lufthavn, Denmark (EKSB) 54-58N 009-47E 14M
Sep 18, 2020 - 07:50 PM EDT / 2020.09.18 2350 UTC
Wind: Calm:0
Temperature: 46 F (8 C)
Dew Point: 41 F (5 C)
Relative Humidity: 81%
Pressure (altimeter): 30.33 in. Hg (1027 hPa)
ob: EKSB 182350Z AUTO 00000KT 9999NDV ///////// 08/05 Q1027
cycle: 0

Station Type Date Time Source
EKSB TAF 2016/01/27 09:03 UTC NOAA

TAF TAF EKSB 270856Z 2709/2721 23022KT 5000 -RA BR BKN008
TEMPO 2709/2721 24025G40KT 2000 RADZ BKN004

Example: see airport list